createdAt,value
2022-09-07T00:01:11.584Z,101202.03
2022-09-07T00:04:17.555Z,101210.53
2022-09-07T00:07:23.247Z,101215.06
2022-09-07T00:10:29.458Z,101214.72
2022-09-07T00:13:38.237Z,101207.97
2022-09-07T00:16:43.750Z,101205.09
2022-09-07T00:19:50.251Z,101197.38
2022-09-07T00:22:55.623Z,101196.25
2022-09-07T00:26:09.872Z,101192.22
2022-09-07T00:29:15.316Z,101192.06
2022-09-07T00:32:21.264Z,101188.44
2022-09-07T00:35:26.986Z,101197.09
2022-09-07T00:38:32.903Z,101191.66
2022-09-07T00:41:38.513Z,101182.47
2022-09-07T00:44:44.309Z,101186.06
2022-09-07T00:48:15.561Z,101183.69
2022-09-07T00:51:30.690Z,101189.38
2022-09-07T00:54:46.388Z,101182.66
2022-09-07T00:57:55.220Z,101191.97
2022-09-07T01:01:00.786Z,101191.47
2022-09-07T01:04:07.242Z,101188.06
2022-09-07T01:07:13.198Z,101182.63
2022-09-07T01:10:19.945Z,101186.97
2022-09-07T01:13:25.492Z,101184.72
2022-09-07T01:16:49.682Z,101181.66
2022-09-07T01:20:07.854Z,101190.31
2022-09-07T01:23:43.850Z,101180.13
2022-09-07T01:27:03.763Z,101176.56
2022-09-07T01:30:16.885Z,101181.75
2022-09-07T01:33:28.174Z,101183.47
2022-09-07T01:37:05.675Z,101181.56
2022-09-07T01:40:17.564Z,101187.75
2022-09-07T01:43:43.402Z,101190.50
2022-09-07T01:46:51.627Z,101194.03
2022-09-07T01:50:09.599Z,101180.72
2022-09-07T01:53:29.003Z,101175.06
2022-09-07T01:56:40.724Z,101174.97
2022-09-07T01:59:58.045Z,101175.41
2022-09-07T02:03:31.517Z,101179.13
2022-09-07T02:06:50.233Z,101180.31
2022-09-07T02:10:01.275Z,101181.16
2022-09-07T02:13:20.402Z,101184.88
2022-09-07T02:16:31.662Z,101181.88
2022-09-07T02:19:43.761Z,101178.47
2022-09-07T02:22:58.623Z,101165.16
2022-09-07T02:26:10.361Z,101163.28
2022-09-07T02:29:16.560Z,101156.38
2022-09-07T02:32:22.283Z,101154.28
2022-09-07T02:35:28.024Z,101151.84
2022-09-07T02:38:34.637Z,101148.44
2022-09-07T02:41:42.834Z,101146.53
2022-09-07T02:44:48.639Z,101140.50
2022-09-07T02:48:39.684Z,101142.22
2022-09-07T02:52:08.115Z,101135.88
2022-09-07T02:55:31.905Z,101130.53
2022-09-07T02:58:50.842Z,101133.56
2022-09-07T03:02:26.175Z,101133.31
2022-09-07T03:05:50.316Z,101135.53
2022-09-07T03:08:59.299Z,101137.75
2022-09-07T03:12:06.234Z,101136.63
2022-09-07T03:15:18.479Z,101134.50
2022-09-07T03:18:25.890Z,101148.75
2022-09-07T03:21:32.802Z,101140.72
2022-09-07T03:24:38.345Z,101139.84
2022-09-07T03:27:44.081Z,101124.78
2022-09-07T03:30:49.826Z,101134.22
2022-09-07T03:33:56.612Z,101137.63
2022-09-07T03:37:02.532Z,101145.50
2022-09-07T03:40:13.804Z,101140.06
2022-09-07T03:43:19.341Z,101137.00
2022-09-07T03:46:24.865Z,101136.22
2022-09-07T03:49:30.525Z,101143.75
2022-09-07T03:52:36.932Z,101141.47
2022-09-07T03:55:42.667Z,101142.59
2022-09-07T03:58:49.864Z,101152.66
2022-09-07T04:01:55.402Z,101154.09
2022-09-07T04:05:01.001Z,101150.75
2022-09-07T04:08:06.566Z,101154.38
2022-09-07T04:11:18.264Z,101162.25
2022-09-07T04:14:24.163Z,101164.16
2022-09-07T04:17:29.760Z,101168.56
2022-09-07T04:20:35.372Z,101169.41
2022-09-07T04:23:42.826Z,101168.56
2022-09-07T04:26:48.114Z,101172.50
2022-09-07T04:29:54.019Z,101172.75
2022-09-07T04:32:59.700Z,101178.50
2022-09-07T04:36:05.847Z,101185.81
2022-09-07T04:39:11.687Z,101192.59
2022-09-07T04:42:17.386Z,101182.69
2022-09-07T04:45:23.052Z,101177.56
2022-09-07T04:48:28.737Z,101180.59
2022-09-07T04:51:35.219Z,101181.16
2022-09-07T04:54:40.848Z,101183.63
2022-09-07T04:57:50.547Z,101185.94
2022-09-07T05:01:00.809Z,101183.31
2022-09-07T05:04:06.186Z,101183.19
2022-09-07T05:07:11.256Z,101184.44
2022-09-07T05:10:16.584Z,101187.72
2022-09-07T05:13:22.342Z,101186.31
2022-09-07T05:16:29.506Z,101188.63
2022-09-07T05:19:35.621Z,101193.16
2022-09-07T05:22:41.533Z,101197.09
2022-09-07T05:25:47.599Z,101196.91
2022-09-07T05:32:19.222Z,101208.81
2022-09-07T05:35:24.343Z,101216.06
2022-09-07T05:38:30.212Z,101224.84
2022-09-07T05:41:36.003Z,101221.44
2022-09-07T05:47:51.437Z,101223.47
2022-09-07T05:50:56.919Z,101225.97
2022-09-07T05:54:02.479Z,101224.28
2022-09-07T05:57:11.379Z,101227.63
2022-09-07T06:00:17.290Z,101219.66
2022-09-07T06:03:25.393Z,101222.84
2022-09-07T06:06:31.507Z,101223.22
2022-09-07T06:13:03.897Z,101241.50
2022-09-07T06:16:11.845Z,101238.50
2022-09-07T06:19:17.214Z,101231.53
2022-09-07T06:22:22.706Z,101229.22
2022-09-07T06:25:28.587Z,101232.78
2022-09-07T06:28:36.695Z,101228.75
2022-09-07T06:35:07.975Z,101238.16
2022-09-07T06:38:13.444Z,101248.66
2022-09-07T06:44:56.358Z,101251.47
2022-09-07T06:48:01.596Z,101259.03
2022-09-07T06:51:10.382Z,101273.94
2022-09-07T06:57:41.525Z,101272.28
2022-09-07T07:00:48.303Z,101273.75
2022-09-07T07:03:55.096Z,101274.88
2022-09-07T07:07:00.682Z,101278.88
2022-09-07T07:10:06.842Z,101279.81
2022-09-07T07:13:12.758Z,101284.81
2022-09-07T07:16:18.674Z,101278.41
2022-09-07T07:19:24.507Z,101278.59
2022-09-07T07:22:46.140Z,101280.84
2022-09-07T07:25:52.783Z,101276.84
2022-09-07T07:32:05.803Z,101287.00
2022-09-07T07:35:12.454Z,101290.56
2022-09-07T07:42:03.031Z,101303.38
2022-09-07T07:48:38.075Z,101311.25
2022-09-07T07:58:37.170Z,101337.91
2022-09-07T08:01:44.122Z,101332.28
2022-09-07T08:04:49.981Z,101337.25
2022-09-07T08:07:55.495Z,101341.94
2022-09-07T08:11:09.236Z,101351.56
2022-09-07T08:14:14.961Z,101357.22
2022-09-07T08:17:20.337Z,101348.53
2022-09-07T08:20:26.074Z,101354.16
2022-09-07T08:23:33.153Z,101356.25
2022-09-07T08:26:39.538Z,101358.00
2022-09-07T08:29:44.833Z,101360.72
2022-09-07T08:32:50.381Z,101358.81
2022-09-07T08:35:58.425Z,101354.09
2022-09-07T08:39:04.051Z,101359.00
2022-09-07T08:42:37.256Z,101364.56
2022-09-07T08:45:57.561Z,101361.06
2022-09-07T08:49:07.376Z,101355.56
2022-09-07T08:52:48.502Z,101362.00
2022-09-07T08:56:06.968Z,101355.31
2022-09-07T08:59:22.141Z,101350.63
2022-09-07T09:02:31.123Z,101351.22
2022-09-07T09:05:44.369Z,101345.16
2022-09-07T09:09:25.780Z,101339.38
2022-09-07T09:12:52.423Z,101339.16
2022-09-07T09:16:36.106Z,101339.97
2022-09-07T09:20:06.786Z,101330.00
2022-09-07T09:23:14.798Z,101324.47
2022-09-07T09:26:32.030Z,101317.66
2022-09-07T09:29:37.909Z,101311.59
2022-09-07T09:32:46.971Z,101300.69
2022-09-07T09:35:54.670Z,101293.44
2022-09-07T09:39:03.979Z,101295.19
2022-09-07T09:42:10.927Z,101285.41
2022-09-07T09:45:21.730Z,101285.59
2022-09-07T09:48:32.977Z,101282.16
2022-09-07T09:55:41.172Z,101281.19
2022-09-07T10:06:04.893Z,101250.06
2022-09-07T10:09:18.671Z,101244.22
2022-09-07T10:12:32.410Z,101251.66
2022-09-07T10:15:41.135Z,101249.84
2022-09-07T10:18:58.777Z,101239.25
2022-09-07T10:22:21.092Z,101236.53
2022-09-07T10:25:39.994Z,101241.47
2022-09-07T10:32:35.764Z,101226.50
2022-09-07T10:36:01.038Z,101217.69
2022-09-07T10:39:16.784Z,101212.22
2022-09-07T10:42:34.475Z,101210.34
2022-09-07T10:45:53.320Z,101211.06
2022-09-07T10:49:25.618Z,101210.81
2022-09-07T10:52:44.067Z,101198.69
2022-09-07T10:56:07.926Z,101196.38
2022-09-07T11:00:10.226Z,101196.19
2022-09-07T11:03:55.101Z,101196.03
2022-09-07T11:07:26.877Z,101189.56
2022-09-07T11:10:59.438Z,101181.22
2022-09-07T11:14:13.888Z,101176.41
2022-09-07T11:17:25.295Z,101181.09
2022-09-07T11:20:32.791Z,101180.81
2022-09-07T11:24:01.762Z,101183.88
2022-09-07T11:27:14.502Z,101182.84
2022-09-07T11:30:32.351Z,101187.50
2022-09-07T11:34:26.284Z,101193.53
2022-09-07T11:37:49.859Z,101192.97
2022-09-07T11:41:01.357Z,101186.56
2022-09-07T11:44:25.454Z,101179.69
2022-09-07T11:47:49.185Z,101190.78
2022-09-07T11:51:04.247Z,101194.34
2022-09-07T11:54:55.211Z,101184.97
2022-09-07T11:58:21.857Z,101187.47
2022-09-07T12:01:43.441Z,101178.75
2022-09-07T12:05:12.936Z,101176.09
2022-09-07T12:08:35.105Z,101183.38
2022-09-07T12:11:58.822Z,101177.84
2022-09-07T12:15:17.552Z,101177.19
2022-09-07T12:18:53.783Z,101176.03
2022-09-07T12:22:00.690Z,101175.44
2022-09-07T12:25:11.383Z,101180.81
2022-09-07T12:28:37.962Z,101176.69
2022-09-07T12:31:59.535Z,101186.91
2022-09-07T12:35:28.646Z,101175.22
2022-09-07T12:38:37.350Z,101175.72
2022-09-07T12:41:47.309Z,101174.59
2022-09-07T12:45:47.648Z,101177.53
2022-09-07T12:49:07.464Z,101173.91
2022-09-07T12:52:42.452Z,101162.50
2022-09-07T12:56:21.030Z,101158.81
2022-09-07T12:59:53.564Z,101160.41
2022-09-07T13:03:51.819Z,101156.72
2022-09-07T13:07:18.566Z,101159.19
2022-09-07T13:10:36.415Z,101152.50
2022-09-07T13:17:33.000Z,101144.88
2022-09-07T13:20:41.587Z,101143.38
2022-09-07T13:27:52.633Z,101135.84
2022-09-07T13:31:23.245Z,101141.16
2022-09-07T13:34:34.817Z,101136.19
2022-09-07T13:37:54.944Z,101130.53
2022-09-07T13:41:26.647Z,101131.78
2022-09-07T13:44:34.476Z,101133.75
2022-09-07T13:47:52.909Z,101125.44
2022-09-07T13:51:19.253Z,101116.81
2022-09-07T13:54:43.541Z,101112.38
2022-09-07T13:58:11.940Z,101113.91
2022-09-07T14:01:24.884Z,101111.75
2022-09-07T14:04:44.723Z,101098.22
2022-09-07T14:07:50.175Z,101095.97
2022-09-07T14:10:56.404Z,101090.41
2022-09-07T14:14:17.777Z,101089.53
2022-09-07T14:17:23.257Z,101090.34
2022-09-07T14:20:29.306Z,101082.94
2022-09-07T14:23:37.293Z,101083.56
2022-09-07T14:26:48.215Z,101080.69
2022-09-07T14:29:53.743Z,101076.00
2022-09-07T14:33:18.064Z,101066.88
2022-09-07T14:36:44.836Z,101065.03
2022-09-07T14:39:53.257Z,101061.56
2022-09-07T14:42:59.020Z,101068.72
2022-09-07T14:46:26.365Z,101066.56
2022-09-07T14:49:31.776Z,101067.16
2022-09-07T14:53:33.180Z,101062.72
2022-09-07T14:56:11.303Z,101052.81
2022-09-07T14:59:40.817Z,101056.22
2022-09-07T15:02:46.432Z,101055.97
2022-09-07T15:05:52.147Z,101063.16
2022-09-07T15:08:58.127Z,101059.31
2022-09-07T15:12:37.934Z,101060.75
2022-09-07T15:16:02.177Z,101048.06
2022-09-07T15:19:31.930Z,101051.19
2022-09-07T15:22:36.949Z,101053.56
2022-09-07T15:25:48.142Z,101057.63
2022-09-07T15:29:12.185Z,101058.59
2022-09-07T15:32:18.777Z,101048.00
2022-09-07T15:35:24.565Z,101044.97
2022-09-07T15:42:00.424Z,101034.78
2022-09-07T15:45:23.868Z,101028.50
2022-09-07T15:48:29.959Z,101031.59
2022-09-07T15:55:01.898Z,101031.16
2022-09-07T15:58:11.698Z,101015.56
2022-09-07T16:04:44.209Z,101010.69
2022-09-07T16:11:25.952Z,101012.47
2022-09-07T16:14:34.992Z,101012.13
2022-09-07T16:17:47.343Z,101004.50
2022-09-07T16:20:53.409Z,101005.66
2022-09-07T16:23:59.196Z,100989.19
2022-09-07T16:27:06.563Z,100994.56
2022-09-07T16:30:13.516Z,100993.84
2022-09-07T16:33:19.453Z,100995.00
2022-09-07T16:36:25.449Z,100986.88
2022-09-07T16:39:32.081Z,100987.59
2022-09-07T16:42:37.718Z,100981.03
2022-09-07T16:49:11.509Z,100990.84
2022-09-07T16:52:17.325Z,100987.63
2022-09-07T16:55:23.136Z,100979.41
2022-09-07T16:58:37.771Z,100973.44
2022-09-07T17:01:43.795Z,100969.59
2022-09-07T17:04:50.927Z,100974.19
2022-09-07T17:07:56.595Z,100971.88
2022-09-07T17:11:07.911Z,100959.91
2022-09-07T17:14:14.140Z,100959.78
2022-09-07T17:17:20.581Z,100962.41
2022-09-07T17:20:26.575Z,100966.56
2022-09-07T17:23:39.431Z,100968.41
2022-09-07T17:26:50.839Z,100970.69
2022-09-07T17:29:57.240Z,100963.50
2022-09-07T17:33:02.822Z,100957.97
2022-09-07T17:36:14.002Z,100950.91
2022-09-07T17:39:19.876Z,100956.38
2022-09-07T17:43:38.878Z,100957.78
2022-09-07T17:45:54.261Z,100965.06
2022-09-07T17:49:01.911Z,100961.38
2022-09-07T17:52:07.391Z,100974.16
2022-09-07T17:55:12.901Z,100976.56
2022-09-07T17:58:19.209Z,100988.53
2022-09-07T18:01:27.347Z,100987.63
2022-09-07T18:04:36.168Z,101004.59
2022-09-07T18:07:42.540Z,101005.75
2022-09-07T18:14:15.137Z,101009.13
2022-09-07T18:17:21.504Z,101012.09
2022-09-07T18:20:26.919Z,101014.41
2022-09-07T18:23:32.200Z,101013.59
2022-09-07T18:26:39.424Z,101022.09
2022-09-07T18:29:44.879Z,101029.72
2022-09-07T18:32:51.527Z,101026.13
2022-09-07T18:35:58.144Z,101043.34
2022-09-07T18:39:05.063Z,101052.78
2022-09-07T18:42:10.889Z,101055.66
2022-09-07T18:45:32.266Z,101059.59
2022-09-07T18:48:39.005Z,101067.47
2022-09-07T18:55:10.918Z,101085.34
2022-09-07T18:58:16.868Z,101089.69
2022-09-07T19:01:23.567Z,101083.06
2022-09-07T19:05:49.690Z,101077.34
2022-09-07T19:07:54.717Z,101078.66
2022-09-07T19:11:13.308Z,101084.13
2022-09-07T19:14:19.242Z,101087.31
2022-09-07T19:17:25.123Z,101083.88
2022-09-07T19:24:37.760Z,101081.53
2022-09-07T19:27:43.394Z,101081.38
2022-09-07T19:30:49.368Z,101085.28
2022-09-07T19:33:59.946Z,101082.44
2022-09-07T19:37:07.457Z,101064.59
2022-09-07T19:40:17.172Z,101057.72
2022-09-07T19:43:25.885Z,101062.59
2022-09-07T19:46:31.337Z,101047.84
2022-09-07T19:49:37.297Z,101045.16
2022-09-07T19:52:43.106Z,101040.03
2022-09-07T19:55:48.810Z,101033.94
2022-09-07T19:58:54.616Z,101034.44
2022-09-07T20:02:00.388Z,101037.81
2022-09-07T20:05:07.598Z,101036.66
2022-09-07T20:08:13.089Z,101043.09
2022-09-07T20:11:19.109Z,101046.78
2022-09-07T20:14:25.175Z,101051.00
2022-09-07T20:17:35.115Z,101046.34
2022-09-07T20:20:40.847Z,101037.38
2022-09-07T20:23:46.781Z,101026.13
2022-09-07T20:26:52.610Z,101029.19
2022-09-07T20:29:58.114Z,101030.31
2022-09-07T20:33:03.912Z,101026.47
2022-09-07T20:36:15.819Z,101021.97
2022-09-07T20:39:22.220Z,101026.50
2022-09-07T20:42:27.964Z,101018.81
2022-09-07T20:45:35.691Z,101017.19
2022-09-07T20:48:41.447Z,101019.91
2022-09-07T20:51:47.042Z,101013.50
2022-09-07T20:54:52.798Z,101012.38
2022-09-07T20:57:58.896Z,101006.75
2022-09-07T21:01:04.775Z,101000.16
2022-09-07T21:04:10.311Z,100992.66
2022-09-07T21:07:15.676Z,100996.47
2022-09-07T21:10:21.045Z,101004.66
2022-09-07T21:13:26.734Z,101004.84
2022-09-07T21:16:33.595Z,100999.56
2022-09-07T21:19:39.954Z,100994.75
2022-09-07T21:22:45.266Z,100990.06
2022-09-07T21:25:51.154Z,100994.91
2022-09-07T21:29:01.772Z,100996.19
2022-09-07T21:32:07.461Z,100996.66
2022-09-07T21:35:13.155Z,101005.00
2022-09-07T21:38:18.957Z,100996.34
2022-09-07T21:41:25.913Z,100992.03
2022-09-07T21:44:31.637Z,100980.31
2022-09-07T21:47:37.513Z,100980.31
2022-09-07T21:50:43.073Z,100985.75
2022-09-07T21:53:53.423Z,100978.69
2022-09-07T21:56:58.936Z,100971.34
2022-09-07T22:00:08.684Z,100970.88
2022-09-07T22:03:14.066Z,100972.47
2022-09-07T22:06:19.876Z,100967.50
2022-09-07T22:09:25.434Z,100969.91
2022-09-07T22:12:31.513Z,100971.00
2022-09-07T22:15:41.841Z,100969.09
2022-09-07T22:18:48.810Z,100960.28
2022-09-07T22:21:54.547Z,100963.00
2022-09-07T22:25:00.379Z,100967.50
2022-09-07T22:28:06.016Z,100965.88
2022-09-07T22:31:32.957Z,100970.53
2022-09-07T22:34:38.642Z,100959.50
2022-09-07T22:37:44.638Z,100952.25
2022-09-07T22:40:49.939Z,100960.28
2022-09-07T22:43:55.688Z,100948.41
2022-09-07T22:47:01.408Z,100954.81
2022-09-07T22:50:07.252Z,100955.94
2022-09-07T22:53:12.804Z,100964.75
2022-09-07T22:56:21.203Z,100960.91
2022-09-07T22:59:26.985Z,100946.81
2022-09-07T23:02:32.320Z,100948.59
2022-09-07T23:05:38.722Z,100945.53
2022-09-07T23:08:44.362Z,100946.66
2022-09-07T23:11:50.325Z,100943.75
2022-09-07T23:14:55.958Z,100948.09
2022-09-07T23:18:01.405Z,100953.88
2022-09-07T23:21:06.821Z,100950.97
2022-09-07T23:24:14.732Z,100947.44
2022-09-07T23:27:19.925Z,100937.22
2022-09-07T23:30:25.512Z,100934.97
2022-09-07T23:33:32.039Z,100937.03
2022-09-07T23:36:37.775Z,100924.53
2022-09-07T23:39:44.832Z,100915.91
2022-09-07T23:42:50.189Z,100915.91
2022-09-07T23:45:56.407Z,100910.09
2022-09-07T23:49:02.199Z,100914.78
2022-09-07T23:52:07.889Z,100895.22
2022-09-07T23:55:13.574Z,100895.53
2022-09-07T23:58:20.713Z,100896.34
